createdAt,value
2022-08-27T00:03:12.989Z,24.81
2022-08-27T00:08:17.319Z,24.82
2022-08-27T00:13:21.911Z,24.83
2022-08-27T00:18:25.411Z,24.83
2022-08-27T00:23:29.380Z,24.85
2022-08-27T00:28:34.459Z,24.81
2022-08-27T00:33:38.420Z,24.76
2022-08-27T00:38:42.223Z,24.74
2022-08-27T00:44:03.370Z,24.71
2022-08-27T00:49:25.333Z,24.73
2022-08-27T00:54:29.931Z,24.73
2022-08-27T00:59:33.751Z,24.69
2022-08-27T01:04:39.846Z,24.71
2022-08-27T01:09:44.274Z,24.73
2022-08-27T01:14:48.192Z,24.73
2022-08-27T01:20:00.095Z,24.73
2022-08-27T01:25:09.880Z,24.70
2022-08-27T01:30:17.441Z,24.68
2022-08-27T01:35:22.188Z,24.67
2022-08-27T01:40:26.017Z,24.63
2022-08-27T01:45:35.389Z,24.67
2022-08-27T01:50:41.462Z,24.66
2022-08-27T01:55:47.660Z,24.66
2022-08-27T02:00:56.464Z,24.66
2022-08-27T02:06:03.374Z,24.66
2022-08-27T02:11:07.838Z,24.70
2022-08-27T02:16:11.573Z,24.65
2022-08-27T02:21:17.718Z,24.65
2022-08-27T02:26:24.377Z,24.61
2022-08-27T02:31:28.186Z,24.59
2022-08-27T02:36:34.609Z,24.56
2022-08-27T02:41:42.836Z,24.60
2022-08-27T02:46:46.735Z,24.56
2022-08-27T02:51:55.802Z,24.59
2022-08-27T02:56:59.742Z,24.63
2022-08-27T03:02:03.429Z,24.61
2022-08-27T03:07:07.444Z,24.62
2022-08-27T03:12:19.757Z,24.58
2022-08-27T03:17:27.993Z,24.58
2022-08-27T03:22:31.450Z,24.58
2022-08-27T03:27:37.388Z,24.59
2022-08-27T03:32:46.451Z,24.62
2022-08-27T03:37:50.495Z,24.66
2022-08-27T03:42:54.128Z,24.69
2022-08-27T03:47:57.851Z,24.74
2022-08-27T03:53:01.160Z,24.74
2022-08-27T03:58:05.187Z,24.75
2022-08-27T04:03:11.895Z,24.77
2022-08-27T04:08:15.230Z,24.79
2022-08-27T04:13:18.989Z,24.83
2022-08-27T04:18:22.635Z,24.90
2022-08-27T04:23:26.501Z,25.00
2022-08-27T04:28:30.198Z,25.12
2022-08-27T04:33:34.287Z,25.23
2022-08-27T04:38:38.691Z,25.35
2022-08-27T04:43:43.213Z,25.48
2022-08-27T04:48:47.694Z,25.55
2022-08-27T04:54:01.094Z,25.62
2022-08-27T04:59:12.134Z,25.76
2022-08-27T05:04:18.845Z,25.88
2022-08-27T05:09:24.583Z,25.99
2022-08-27T05:14:30.978Z,26.04
2022-08-27T05:19:45.210Z,26.08
2022-08-27T05:24:50.469Z,26.53
2022-08-27T05:29:54.052Z,26.81
2022-08-27T05:34:57.593Z,27.03
2022-08-27T05:40:02.711Z,27.04
2022-08-27T05:45:06.854Z,27.04
2022-08-27T05:50:10.378Z,27.21
2022-08-27T05:55:13.647Z,27.43
2022-08-27T06:00:17.149Z,27.71
2022-08-27T06:05:28.808Z,27.74
2022-08-27T06:10:35.058Z,27.80
2022-08-27T06:15:40.059Z,28.18
2022-08-27T06:20:44.334Z,28.87
2022-08-27T06:25:47.574Z,30.06
2022-08-27T06:30:53.760Z,30.28
2022-08-27T06:36:00.340Z,30.04
2022-08-27T06:41:08.274Z,29.78
2022-08-27T06:46:24.497Z,29.47
2022-08-27T06:51:31.342Z,29.33
2022-08-27T06:56:37.075Z,29.10
2022-08-27T07:01:43.370Z,29.06
2022-08-27T07:06:47.081Z,29.02
2022-08-27T07:11:52.282Z,28.94
2022-08-27T07:16:56.366Z,28.90
2022-08-27T07:22:00.647Z,28.97
2022-08-27T07:27:04.827Z,29.12
2022-08-27T07:32:08.547Z,29.17
2022-08-27T07:37:14.878Z,29.24
2022-08-27T07:42:18.854Z,29.35
2022-08-27T07:47:23.193Z,29.51
2022-08-27T07:52:28.372Z,29.67
2022-08-27T07:57:34.764Z,29.97
2022-08-27T08:02:38.868Z,30.37
2022-08-27T08:07:42.472Z,30.65
2022-08-27T08:12:45.986Z,30.74
2022-08-27T08:17:51.471Z,31.03
2022-08-27T08:22:55.126Z,31.35
2022-08-27T08:27:58.670Z,31.60
2022-08-27T08:33:04.587Z,31.62
2022-08-27T08:38:08.844Z,31.68
2022-08-27T08:43:43.943Z,31.41
2022-08-27T08:48:52.313Z,31.32
2022-08-27T08:54:03.717Z,31.10
2022-08-27T08:59:18.772Z,31.01
2022-08-27T09:04:27.737Z,30.87
2022-08-27T09:09:52.546Z,30.78
2022-08-27T09:15:06.259Z,30.71
2022-08-27T09:20:18.546Z,30.57
2022-08-27T09:25:32.153Z,30.46
2022-08-27T09:30:45.434Z,30.46
2022-08-27T09:35:50.486Z,30.43
2022-08-27T09:40:56.980Z,30.41
2022-08-27T09:46:05.706Z,30.37
2022-08-27T09:51:13.917Z,30.30
2022-08-27T09:56:36.994Z,30.17
2022-08-27T10:01:53.281Z,30.18
2022-08-27T10:06:57.696Z,30.06
2022-08-27T10:12:13.052Z,30.06
2022-08-27T10:17:32.168Z,30.20
2022-08-27T10:22:59.362Z,30.13
2022-08-27T10:28:21.609Z,30.06
2022-08-27T10:33:38.365Z,29.96
2022-08-27T10:38:50.305Z,29.91
2022-08-27T10:44:12.283Z,29.86
2022-08-27T10:49:27.405Z,29.89
2022-08-27T10:54:48.074Z,29.92
2022-08-27T11:00:20.793Z,29.90
2022-08-27T11:05:29.216Z,29.91
2022-08-27T11:10:55.378Z,29.93
2022-08-27T11:16:02.268Z,29.79
2022-08-27T11:21:43.929Z,29.73
2022-08-27T11:26:50.570Z,29.75
2022-08-27T11:32:20.171Z,29.71
2022-08-27T11:37:26.725Z,29.61
2022-08-27T11:42:51.511Z,29.48
2022-08-27T11:48:00.082Z,29.33
2022-08-27T11:53:08.752Z,29.33
2022-08-27T11:58:17.946Z,29.33
2022-08-27T12:03:32.996Z,29.36
2022-08-27T12:08:40.991Z,29.37
2022-08-27T12:14:01.312Z,29.18
2022-08-27T12:19:16.484Z,29.09
2022-08-27T12:24:44.196Z,28.98
2022-08-27T12:30:21.297Z,28.96
2022-08-27T12:35:46.171Z,28.99
2022-08-27T12:40:51.708Z,28.89
2022-08-27T12:46:03.544Z,28.81
2022-08-27T12:51:19.075Z,28.75
2022-08-27T12:56:57.899Z,28.72
2022-08-27T13:02:19.765Z,28.61
2022-08-27T13:07:37.679Z,28.54
2022-08-27T13:12:44.196Z,28.54
2022-08-27T13:17:52.517Z,28.43
2022-08-27T13:22:56.237Z,28.42
2022-08-27T13:28:29.797Z,28.36
2022-08-27T13:33:36.813Z,28.28
2022-08-27T13:38:49.803Z,28.25
2022-08-27T13:43:58.494Z,28.23
2022-08-27T13:49:02.918Z,28.26
2022-08-27T13:54:12.275Z,28.30
2022-08-27T13:59:26.064Z,28.34
2022-08-27T14:04:38.551Z,28.25
2022-08-27T14:09:51.278Z,28.14
2022-08-27T14:15:11.074Z,28.05
2022-08-27T14:20:16.435Z,28.00
2022-08-27T14:25:22.951Z,27.97
2022-08-27T14:30:29.806Z,27.87
2022-08-27T14:35:36.346Z,27.81
2022-08-27T14:40:40.318Z,27.77
2022-08-27T14:45:48.607Z,27.77
2022-08-27T14:50:52.766Z,27.72
2022-08-27T14:55:56.146Z,27.73
2022-08-27T15:00:59.741Z,27.68
2022-08-27T15:06:03.797Z,27.60
2022-08-27T15:11:14.524Z,27.50
2022-08-27T15:16:32.043Z,27.42
2022-08-27T15:21:38.418Z,27.30
2022-08-27T15:26:42.014Z,27.21
2022-08-27T15:31:47.223Z,27.18
2022-08-27T15:36:53.483Z,27.08
2022-08-27T15:42:06.388Z,27.01
2022-08-27T15:47:10.846Z,26.91
2022-08-27T15:52:17.420Z,26.78
2022-08-27T15:57:21.257Z,26.69
2022-08-27T16:02:25.055Z,26.63
2022-08-27T16:07:28.793Z,26.58
2022-08-27T16:12:32.364Z,26.53
2022-08-27T16:17:36.601Z,26.47
2022-08-27T16:22:40.346Z,26.40
2022-08-27T16:27:43.756Z,26.37
2022-08-27T16:32:50.498Z,26.34
2022-08-27T16:37:53.890Z,26.29
2022-08-27T16:42:58.495Z,26.26
2022-08-27T16:48:01.982Z,26.24
2022-08-27T16:53:10.169Z,26.25
2022-08-27T16:58:23.864Z,26.21
2022-08-27T17:03:58.005Z,26.20
2022-08-27T17:09:03.669Z,26.17
2022-08-27T17:14:07.549Z,26.15
2022-08-27T17:19:16.678Z,26.16
2022-08-27T17:24:23.350Z,26.15
2022-08-27T17:29:29.120Z,26.11
2022-08-27T17:34:32.675Z,26.11
2022-08-27T17:39:36.253Z,26.11
2022-08-27T17:44:40.819Z,26.09
2022-08-27T17:49:47.919Z,26.08
2022-08-27T17:54:55.632Z,26.06
2022-08-27T18:00:04.168Z,26.09
2022-08-27T18:05:14.688Z,26.08
2022-08-27T18:10:22.915Z,26.06
2022-08-27T18:15:29.275Z,26.04
2022-08-27T18:20:34.181Z,26.03
2022-08-27T18:25:40.160Z,26.04
2022-08-27T18:30:46.024Z,26.03
2022-08-27T18:35:52.279Z,26.03
2022-08-27T18:40:56.531Z,26.02
2022-08-27T18:46:06.117Z,26.02
2022-08-27T18:51:12.372Z,25.98
2022-08-27T18:56:19.741Z,25.94
2022-08-27T19:01:26.756Z,25.91
2022-08-27T19:06:30.370Z,25.88
2022-08-27T19:11:34.043Z,25.89
2022-08-27T19:16:47.696Z,25.89
2022-08-27T19:21:54.133Z,25.89
2022-08-27T19:26:57.859Z,25.88
2022-08-27T19:32:01.806Z,25.89
2022-08-27T19:37:07.843Z,25.89
2022-08-27T19:42:11.297Z,25.89
2022-08-27T19:47:21.400Z,25.87
2022-08-27T19:52:25.184Z,25.86
2022-08-27T19:57:29.062Z,25.85
2022-08-27T20:02:33.931Z,25.85
2022-08-27T20:07:40.363Z,25.85
2022-08-27T20:12:45.802Z,25.82
2022-08-27T20:18:09.204Z,25.83
2022-08-27T20:23:12.802Z,25.83
2022-08-27T20:28:37.717Z,25.82
2022-08-27T20:33:40.196Z,25.82
2022-08-27T20:38:45.720Z,25.81
2022-08-27T20:43:52.275Z,25.82
2022-08-27T20:48:55.839Z,25.80
2022-08-27T20:53:59.205Z,25.80
2022-08-27T20:59:03.258Z,25.78
2022-08-27T21:04:06.903Z,25.76
2022-08-27T21:09:13.332Z,25.74
2022-08-27T21:14:21.594Z,25.78
2022-08-27T21:19:27.740Z,25.77
2022-08-27T21:24:31.219Z,25.75
2022-08-27T21:29:34.584Z,25.73
2022-08-27T21:34:37.989Z,25.72
2022-08-27T21:39:42.772Z,25.71
2022-08-27T21:44:50.460Z,25.70
2022-08-27T21:49:54.025Z,25.71
2022-08-27T21:55:00.854Z,25.69
2022-08-27T22:00:31.155Z,25.73
2022-08-27T22:05:34.941Z,25.78
2022-08-27T22:10:39.978Z,25.78
2022-08-27T22:15:44.103Z,25.79
2022-08-27T22:20:53.562Z,25.84
2022-08-27T22:25:57.665Z,25.87
2022-08-27T22:31:01.183Z,25.89
2022-08-27T22:36:04.554Z,25.90
2022-08-27T22:41:08.475Z,25.90
2022-08-27T22:46:12.589Z,25.86
2022-08-27T22:51:18.722Z,25.84
2022-08-27T22:56:22.104Z,25.81
2022-08-27T23:01:26.123Z,25.78
2022-08-27T23:06:29.562Z,25.77
2022-08-27T23:11:33.339Z,25.77
2022-08-27T23:16:38.914Z,25.76
2022-08-27T23:21:42.769Z,25.76
2022-08-27T23:26:47.099Z,25.73
2022-08-27T23:31:56.055Z,25.70
2022-08-27T23:37:01.069Z,25.68
2022-08-27T23:42:06.812Z,25.67
2022-08-27T23:47:10.665Z,25.63
2022-08-27T23:52:14.723Z,25.65
2022-08-27T23:57:19.238Z,25.64
